createdAt,value
2018-04-17T00:01:21.240Z,100324
2018-04-17T00:03:50.044Z,100332
2018-04-17T00:06:18.118Z,100330
2018-04-17T00:08:46.236Z,100333
2018-04-17T00:11:14.266Z,100336
2018-04-17T00:13:42.310Z,100341
2018-04-17T00:16:10.346Z,100335
2018-04-17T00:18:39.152Z,100335
2018-04-17T00:21:07.190Z,100348
2018-04-17T00:23:35.235Z,100348
2018-04-17T00:26:04.049Z,100345
2018-04-17T00:28:32.094Z,100351
2018-04-17T00:31:00.135Z,100347
2018-04-17T00:33:28.179Z,100341
2018-04-17T00:35:56.978Z,100348
2018-04-17T00:38:25.790Z,100348
2018-04-17T00:40:54.597Z,100342
2018-04-17T00:43:23.403Z,100347
2018-04-17T00:45:51.518Z,100350
2018-04-17T00:48:19.589Z,100351
2018-04-17T00:50:47.662Z,100360
2018-04-17T00:53:33.559Z,100368
2018-04-17T00:56:02.377Z,100372
2018-04-17T00:58:30.418Z,100370
2018-04-17T01:00:59.977Z,100371
2018-04-17T01:03:28.018Z,100377
2018-04-17T01:05:57.563Z,100377
2018-04-17T01:08:26.382Z,100383
2018-04-17T01:10:54.426Z,100382
2018-04-17T01:13:22.474Z,100388
2018-04-17T01:15:50.511Z,100387
2018-04-17T01:18:19.315Z,100388
2018-04-17T01:20:48.143Z,100388
2018-04-17T01:23:16.180Z,100389
2018-04-17T01:25:45.039Z,100389
2018-04-17T01:28:13.082Z,100391
2018-04-17T01:30:41.201Z,100387
2018-04-17T01:33:09.241Z,100390
2018-04-17T01:35:37.359Z,100394
2018-04-17T01:38:06.141Z,100398
2018-04-17T01:40:34.951Z,100396
2018-04-17T01:43:03.873Z,100399
2018-04-17T01:45:31.914Z,100396
2018-04-17T01:47:59.944Z,100401
2018-04-17T01:50:27.984Z,100405
2018-04-17T01:52:56.073Z,100406
2018-04-17T01:55:24.200Z,100411
2018-04-17T01:57:52.240Z,100413
2018-04-17T02:00:20.280Z,100413
2018-04-17T02:02:48.325Z,100413
2018-04-17T02:05:17.140Z,100412
2018-04-17T02:07:45.932Z,100408
2018-04-17T02:10:14.739Z,100415
2018-04-17T02:12:43.543Z,100419
2018-04-17T02:15:12.356Z,100421
2018-04-17T02:17:41.146Z,100415
2018-04-17T02:20:09.957Z,100414
2018-04-17T02:22:37.994Z,100406
2018-04-17T02:25:06.046Z,100404
2018-04-17T02:27:34.094Z,100403
2018-04-17T02:30:02.903Z,100399
2018-04-17T02:32:31.715Z,100398
2018-04-17T02:34:59.762Z,100400
2018-04-17T02:37:27.797Z,100402
2018-04-17T02:39:55.830Z,100409
2018-04-17T02:42:23.952Z,100418
2018-04-17T02:44:51.993Z,100412
2018-04-17T02:47:20.028Z,100418
2018-04-17T02:49:48.067Z,100416
2018-04-17T02:52:16.192Z,100424
2018-04-17T02:54:44.231Z,100429
2018-04-17T02:57:12.277Z,100429
2018-04-17T02:59:40.315Z,100432
2018-04-17T03:02:08.355Z,100440
2018-04-17T03:04:36.390Z,100438
2018-04-17T03:07:05.205Z,100442
2018-04-17T03:09:34.002Z,100444
2018-04-17T03:12:02.807Z,100445
2018-04-17T03:14:31.619Z,100451
2018-04-17T03:16:59.666Z,100453
2018-04-17T03:19:27.791Z,100455
2018-04-17T03:21:55.855Z,100455
2018-04-17T03:24:23.886Z,100458
2018-04-17T03:26:51.950Z,100464
2018-04-17T03:29:19.987Z,100466
2018-04-17T03:31:49.553Z,100469
2018-04-17T03:34:17.579Z,100477
2018-04-17T03:36:45.629Z,100478
2018-04-17T03:39:13.690Z,100481
2018-04-17T03:41:42.490Z,100480
2018-04-17T03:44:10.530Z,100487
2018-04-17T03:46:38.587Z,100490
2018-04-17T03:49:06.618Z,100496
2018-04-17T03:51:35.450Z,100493
2018-04-17T03:54:04.361Z,100494
2018-04-17T03:56:32.401Z,100486
2018-04-17T03:59:00.438Z,100497
2018-04-17T04:01:28.486Z,100498
2018-04-17T04:03:57.315Z,100502
2018-04-17T04:06:25.363Z,100508
2018-04-17T04:08:54.165Z,100511
2018-04-17T04:11:22.283Z,100515
2018-04-17T04:13:50.329Z,100519
2018-04-17T04:16:36.191Z,100521
2018-04-17T04:19:22.273Z,100526
2018-04-17T04:22:08.082Z,100521
2018-04-17T04:24:54.059Z,100522
2018-04-17T04:27:22.102Z,100531
2018-04-17T04:29:50.138Z,100532
2018-04-17T04:32:18.996Z,100534
2018-04-17T04:34:47.088Z,100538
2018-04-17T04:37:15.847Z,100544
2018-04-17T04:39:43.879Z,100545
2018-04-17T04:42:11.930Z,100551
2018-04-17T04:44:39.980Z,100547
2018-04-17T04:47:08.902Z,100552
2018-04-17T04:49:36.943Z,100555
2018-04-17T04:52:05.094Z,100557
2018-04-17T04:54:33.107Z,100557
2018-04-17T04:57:01.155Z,100557
2018-04-17T04:59:29.199Z,100565
2018-04-17T05:01:58.008Z,100563
2018-04-17T05:04:26.823Z,100571
2018-04-17T05:06:54.874Z,100571
2018-04-17T05:09:23.687Z,100572
2018-04-17T05:11:52.498Z,100575
2018-04-17T05:14:21.314Z,100579
2018-04-17T05:16:49.363Z,100584
2018-04-17T05:19:18.208Z,100586
2018-04-17T05:21:46.246Z,100586
2018-04-17T05:24:14.290Z,100585
2018-04-17T05:26:42.330Z,100594
2018-04-17T05:29:11.167Z,100592
2018-04-17T05:31:39.248Z,100591
2018-04-17T05:34:07.292Z,100599
2018-04-17T05:36:35.333Z,100606
2018-04-17T05:39:03.384Z,100614
2018-04-17T05:41:32.183Z,100615
2018-04-17T05:44:01.001Z,100615
2018-04-17T05:46:29.030Z,100624
2018-04-17T05:48:57.084Z,100628
2018-04-17T05:51:25.119Z,100631
2018-04-17T05:53:53.172Z,100636
2018-04-17T05:56:21.205Z,100642
2018-04-17T05:58:50.023Z,100644
2018-04-17T06:01:18.062Z,100644
2018-04-17T06:03:46.122Z,100648
2018-04-17T06:06:14.169Z,100654
2018-04-17T06:08:42.980Z,100659
2018-04-17T06:11:11.024Z,100666
2018-04-17T06:13:39.075Z,100658
2018-04-17T06:16:07.116Z,100661
2018-04-17T06:18:35.938Z,100664
2018-04-17T06:21:03.983Z,100664
2018-04-17T06:23:32.035Z,100662
2018-04-17T06:26:00.084Z,100661
2018-04-17T06:28:28.174Z,100665
2018-04-17T06:30:56.214Z,100660
2018-04-17T06:33:24.269Z,100662
2018-04-17T06:35:52.421Z,100669
2018-04-17T06:38:20.505Z,100669
2018-04-17T06:40:48.553Z,100663
2018-04-17T06:43:16.674Z,100671
2018-04-17T06:45:44.719Z,100674
2018-04-17T06:48:12.769Z,100678
2018-04-17T06:50:40.815Z,100678
2018-04-17T06:53:09.733Z,100669
2018-04-17T06:55:37.797Z,100682
2018-04-17T06:58:06.619Z,100675
2018-04-17T07:00:35.426Z,100685
2018-04-17T07:03:04.244Z,100691
2018-04-17T07:05:32.417Z,100695
2018-04-17T07:08:00.462Z,100701
2018-04-17T07:10:28.523Z,100706
2018-04-17T07:12:56.570Z,100710
2018-04-17T07:15:24.632Z,100720
2018-04-17T07:17:53.564Z,100721
2018-04-17T07:20:21.643Z,100719
2018-04-17T07:22:49.730Z,100720
2018-04-17T07:25:17.787Z,100715
2018-04-17T07:27:46.615Z,100724
2018-04-17T07:30:14.662Z,100723
2018-04-17T07:32:42.784Z,100728
2018-04-17T07:35:10.840Z,100724
2018-04-17T07:37:39.755Z,100723
2018-04-17T07:40:08.471Z,100729
2018-04-17T07:42:36.514Z,100730
2018-04-17T07:45:04.567Z,100732
2018-04-17T07:47:32.616Z,100732
2018-04-17T07:50:00.665Z,100737
2018-04-17T07:52:28.714Z,100742
2018-04-17T07:54:57.088Z,100742
2018-04-17T07:57:25.127Z,100739
2018-04-17T07:59:53.197Z,100737
2018-04-17T08:02:21.243Z,100737
2018-04-17T08:04:49.295Z,100734
2018-04-17T08:07:18.100Z,100741
2018-04-17T08:09:46.923Z,100737
2018-04-17T08:12:14.971Z,100740
2018-04-17T08:14:43.028Z,100735
2018-04-17T08:17:11.066Z,100736
2018-04-17T08:19:39.985Z,100735
2018-04-17T08:22:08.027Z,100735
2018-04-17T08:24:36.083Z,100729
2018-04-17T08:27:04.134Z,100728
2018-04-17T08:29:32.187Z,100727
2018-04-17T08:32:01.003Z,100725
2018-04-17T08:34:29.818Z,100731
2018-04-17T08:36:57.960Z,100738
2018-04-17T08:39:25.950Z,100734
2018-04-17T08:41:54.006Z,100734
2018-04-17T08:44:22.046Z,100735
2018-04-17T08:46:50.103Z,100737
2018-04-17T08:49:18.153Z,100740
2018-04-17T08:51:46.241Z,100738
2018-04-17T08:54:14.270Z,100734
2018-04-17T08:56:43.095Z,100739
2018-04-17T08:59:11.188Z,100736
2018-04-17T09:01:39.243Z,100734
2018-04-17T09:04:08.058Z,100736
2018-04-17T09:06:36.878Z,100742
2018-04-17T09:09:05.807Z,100747
2018-04-17T09:11:33.858Z,100741
2018-04-17T09:14:01.911Z,100745
2018-04-17T09:16:30.746Z,100752
2018-04-17T09:18:58.787Z,100751
2018-04-17T09:21:26.842Z,100750
2018-04-17T09:23:54.896Z,100752
2018-04-17T09:26:23.803Z,100754
2018-04-17T09:28:51.887Z,100758
2018-04-17T09:31:19.946Z,100760
2018-04-17T09:33:48.761Z,100764
2018-04-17T09:36:17.683Z,100769
2018-04-17T09:38:45.738Z,100771
2018-04-17T09:41:14.554Z,100774
2018-04-17T09:43:43.362Z,100776
2018-04-17T09:46:11.460Z,100769
2018-04-17T09:48:39.507Z,100771
2018-04-17T09:51:07.628Z,100771
2018-04-17T09:53:35.674Z,100773
2018-04-17T09:56:03.722Z,100771
2018-04-17T09:58:31.764Z,100772
2018-04-17T10:00:59.875Z,100764
2018-04-17T10:03:28.043Z,100761
2018-04-17T10:05:56.094Z,100761
2018-04-17T10:08:24.152Z,100765
2018-04-17T10:10:52.198Z,100758
2018-04-17T10:13:20.288Z,100755
2018-04-17T10:15:48.334Z,100758
2018-04-17T10:18:16.393Z,100755
2018-04-17T10:20:44.439Z,100752
2018-04-17T10:23:12.486Z,100751
2018-04-17T10:25:40.530Z,100743
2018-04-17T10:28:08.582Z,100741
2018-04-17T10:30:37.504Z,100733
2018-04-17T10:33:05.606Z,100728
2018-04-17T10:35:33.734Z,100729
2018-04-17T10:38:01.802Z,100730
2018-04-17T10:40:29.859Z,100731
2018-04-17T10:42:58.747Z,100725
2018-04-17T10:45:26.825Z,100726
2018-04-17T10:47:54.888Z,100722
2018-04-17T10:50:23.699Z,100721
2018-04-17T10:52:52.518Z,100719
2018-04-17T10:55:20.558Z,100715
2018-04-17T10:57:48.614Z,100720
2018-04-17T11:00:16.673Z,100723
2018-04-17T11:02:44.723Z,100721
2018-04-17T11:05:13.532Z,100718
2018-04-17T11:07:42.346Z,100718
2018-04-17T11:10:11.155Z,100719
2018-04-17T11:12:40.008Z,100713
2018-04-17T11:15:08.148Z,100716
2018-04-17T11:17:36.206Z,100715
2018-04-17T11:20:04.323Z,100714
2018-04-17T11:22:32.373Z,100718
2018-04-17T11:25:01.186Z,100714
2018-04-17T11:27:30.002Z,100716
2018-04-17T11:29:58.091Z,100714
2018-04-17T11:32:26.142Z,100705
2018-04-17T11:34:54.272Z,100709
2018-04-17T11:37:22.551Z,100713
2018-04-17T11:39:50.604Z,100709
2018-04-17T11:42:19.412Z,100709
2018-04-17T11:44:48.235Z,100710
2018-04-17T11:47:16.283Z,100708
2018-04-17T11:49:44.338Z,100701
2018-04-17T11:52:12.379Z,100704
2018-04-17T11:54:40.580Z,100701
2018-04-17T11:57:08.667Z,100706
2018-04-17T11:59:36.734Z,100703
2018-04-17T12:02:05.562Z,100702
2018-04-17T12:04:33.648Z,100700
2018-04-17T12:07:01.692Z,100694
2018-04-17T12:09:30.507Z,100699
2018-04-17T12:11:59.327Z,100695
2018-04-17T12:14:27.711Z,100698
2018-04-17T12:16:55.870Z,100694
2018-04-17T12:19:24.707Z,100698
2018-04-17T12:21:52.742Z,100699
2018-04-17T12:24:20.798Z,100701
2018-04-17T12:26:48.862Z,100694
2018-04-17T12:29:16.947Z,100694
2018-04-17T12:31:44.981Z,100691
2018-04-17T12:34:13.035Z,100692
2018-04-17T12:36:41.075Z,100688
2018-04-17T12:39:09.895Z,100686
2018-04-17T12:41:37.949Z,100685
2018-04-17T12:44:06.762Z,100680
2018-04-17T12:46:35.577Z,100682
2018-04-17T12:49:04.383Z,100685
2018-04-17T12:51:32.434Z,100687
2018-04-17T12:54:01.980Z,100687
2018-04-17T12:56:30.030Z,100690
2018-04-17T12:58:58.157Z,100684
2018-04-17T13:01:26.243Z,100684
2018-04-17T13:03:54.294Z,100682
2018-04-17T13:06:22.342Z,100690
2018-04-17T13:08:50.502Z,100691
2018-04-17T13:11:18.554Z,100691
2018-04-17T13:13:47.370Z,100690
2018-04-17T13:16:16.296Z,100688
2018-04-17T13:18:44.333Z,100690
2018-04-17T13:21:12.386Z,100688
2018-04-17T13:23:40.445Z,100682
2018-04-17T13:26:09.255Z,100682
2018-04-17T13:28:37.294Z,100690
2018-04-17T13:31:06.961Z,100682
2018-04-17T13:33:35.753Z,100673
2018-04-17T13:36:03.838Z,100673
2018-04-17T13:38:31.888Z,100674
2018-04-17T13:41:00.008Z,100675
2018-04-17T13:43:28.099Z,100668
2018-04-17T13:45:56.148Z,100670
2018-04-17T13:48:24.195Z,100665
2018-04-17T13:50:52.238Z,100663
2018-04-17T13:53:20.338Z,100665
2018-04-17T13:55:48.405Z,100663
2018-04-17T13:58:17.224Z,100671
2018-04-17T14:00:45.265Z,100670
2018-04-17T14:03:13.393Z,100676
2018-04-17T14:05:41.446Z,100668
2018-04-17T14:08:10.266Z,100668
2018-04-17T14:10:39.178Z,100670
2018-04-17T14:13:07.342Z,100679
2018-04-17T14:15:35.463Z,100680
2018-04-17T14:18:03.509Z,100675
2018-04-17T14:20:32.442Z,100672
2018-04-17T14:23:00.492Z,100672
2018-04-17T14:25:28.556Z,100667
2018-04-17T14:27:56.674Z,100666
2018-04-17T14:30:25.511Z,100664
2018-04-17T14:32:53.571Z,100665
2018-04-17T14:35:22.377Z,100665
2018-04-17T14:37:50.444Z,100663
2018-04-17T14:40:19.247Z,100665
2018-04-17T14:42:48.061Z,100664
2018-04-17T14:45:16.958Z,100666
2018-04-17T14:47:45.853Z,100666
2018-04-17T14:50:13.983Z,100665
2018-04-17T14:52:42.031Z,100664
2018-04-17T14:55:10.845Z,100660
2018-04-17T14:57:39.664Z,100660
2018-04-17T15:00:07.709Z,100657
2018-04-17T15:02:35.755Z,100654
2018-04-17T15:05:03.798Z,100653
2018-04-17T15:07:31.850Z,100652
2018-04-17T15:09:59.895Z,100650
2018-04-17T15:12:27.946Z,100651
2018-04-17T15:14:56.767Z,100648
2018-04-17T15:17:24.850Z,100649
2018-04-17T15:19:52.894Z,100649
2018-04-17T15:22:20.949Z,100650
2018-04-17T15:24:48.991Z,100646
2018-04-17T15:27:17.057Z,100652
2018-04-17T15:29:45.107Z,100648
2018-04-17T15:32:13.165Z,100642
2018-04-17T15:34:41.206Z,100646
2018-04-17T15:37:09.357Z,100643
2018-04-17T15:39:37.402Z,100645
2018-04-17T15:42:05.446Z,100640
2018-04-17T15:44:33.503Z,100647
2018-04-17T15:47:01.557Z,100656
2018-04-17T15:49:30.414Z,100660
2018-04-17T15:51:58.549Z,100661
2018-04-17T15:54:26.604Z,100664
2018-04-17T15:56:54.656Z,100665
2018-04-17T15:59:22.701Z,100663
2018-04-17T16:01:50.794Z,100665
2018-04-17T16:04:18.851Z,100666
2018-04-17T16:06:46.878Z,100667
2018-04-17T16:09:14.953Z,100671
2018-04-17T16:11:43.741Z,100671
2018-04-17T16:14:11.827Z,100676
2018-04-17T16:16:39.872Z,100674
2018-04-17T16:19:08.011Z,100668
2018-04-17T16:21:36.053Z,100678
2018-04-17T16:24:04.105Z,100674
2018-04-17T16:26:32.151Z,100669
2018-04-17T16:29:00.202Z,100674
2018-04-17T16:31:28.252Z,100670
2018-04-17T16:33:56.308Z,100674
2018-04-17T16:36:24.403Z,100683
2018-04-17T16:38:52.454Z,100677
2018-04-17T16:41:21.330Z,100678
2018-04-17T16:43:50.881Z,100672
2018-04-17T16:46:19.703Z,100684
2018-04-17T16:48:47.750Z,100681
2018-04-17T16:51:16.617Z,100683
2018-04-17T16:53:44.633Z,100685
2018-04-17T16:56:12.674Z,100689
2018-04-17T16:58:40.728Z,100689
2018-04-17T17:01:09.535Z,100691
2018-04-17T17:03:37.583Z,100698
2018-04-17T17:06:05.716Z,100697
2018-04-17T17:08:33.787Z,100703
2018-04-17T17:11:02.596Z,100712
2018-04-17T17:13:30.635Z,100716
2018-04-17T17:15:58.690Z,100721
2018-04-17T17:18:26.730Z,100723
2018-04-17T17:20:55.544Z,100726
2018-04-17T17:23:24.470Z,100733
2018-04-17T17:25:52.542Z,100732
2018-04-17T17:28:20.638Z,100741
2018-04-17T17:30:48.689Z,100750
2018-04-17T17:33:17.500Z,100756
2018-04-17T17:35:46.414Z,100757
2018-04-17T17:38:14.525Z,100771
2018-04-17T17:40:42.507Z,100773
2018-04-17T17:43:10.590Z,100779
2018-04-17T17:45:38.626Z,100781
2018-04-17T17:48:06.667Z,100787
2018-04-17T17:50:34.718Z,100792
2018-04-17T17:53:02.766Z,100797
2018-04-17T17:55:30.816Z,100805
2018-04-17T17:57:58.861Z,100812
2018-04-17T18:00:27.665Z,100810
2018-04-17T18:02:56.475Z,100812
2018-04-17T18:05:24.520Z,100814
2018-04-17T18:07:52.570Z,100814
2018-04-17T18:10:20.619Z,100830
2018-04-17T18:12:49.422Z,100838
2018-04-17T18:15:18.247Z,100834
2018-04-17T18:17:46.298Z,100846
2018-04-17T18:20:15.167Z,100846
2018-04-17T18:22:43.211Z,100853
2018-04-17T18:25:11.262Z,100854
2018-04-17T18:27:39.383Z,100858
2018-04-17T18:30:07.439Z,100859
2018-04-17T18:32:35.477Z,100864
2018-04-17T18:35:03.538Z,100865
2018-04-17T18:37:31.597Z,100873
2018-04-17T18:40:00.407Z,100875
2018-04-17T18:42:29.216Z,100879
2018-04-17T18:44:57.279Z,100888
2018-04-17T18:47:26.090Z,100887
2018-04-17T18:49:55.009Z,100896
2018-04-17T18:52:23.055Z,100898
2018-04-17T18:54:51.104Z,100901
2018-04-17T18:57:19.167Z,100900
2018-04-17T18:59:47.210Z,100905
2018-04-17T19:02:15.339Z,100907
2018-04-17T19:04:43.395Z,100908
2018-04-17T19:07:11.511Z,100913
2018-04-17T19:09:39.558Z,100915
2018-04-17T19:12:07.655Z,100916
2018-04-17T19:14:36.474Z,100925
2018-04-17T19:17:04.557Z,100929
2018-04-17T19:19:32.658Z,100937
2018-04-17T19:22:00.786Z,100940
2018-04-17T19:24:28.840Z,100940
2018-04-17T19:26:56.960Z,100935
2018-04-17T19:29:25.048Z,100942
2018-04-17T19:31:54.645Z,100942
2018-04-17T19:34:22.772Z,100940
2018-04-17T19:36:51.588Z,100945
2018-04-17T19:39:20.514Z,100944
2018-04-17T19:41:49.336Z,100946
2018-04-17T19:44:17.385Z,100947
2018-04-17T19:46:46.199Z,100948
2018-04-17T19:49:14.350Z,100945
2018-04-17T19:51:42.398Z,100947
2018-04-17T19:54:10.442Z,100946
2018-04-17T19:56:38.493Z,100954
2018-04-17T19:59:06.623Z,100952
2018-04-17T20:01:34.712Z,100960
2018-04-17T20:04:03.639Z,100961
2018-04-17T20:06:31.717Z,100963
2018-04-17T20:08:59.865Z,100964
2018-04-17T20:11:28.707Z,100969
2018-04-17T20:13:56.795Z,100968
2018-04-17T20:16:24.839Z,100972
2018-04-17T20:18:53.654Z,100979
2018-04-17T20:21:21.713Z,100981
2018-04-17T20:23:49.831Z,100980
2018-04-17T20:26:18.042Z,100981
2018-04-17T20:28:46.088Z,100985
2018-04-17T20:31:15.035Z,100986
2018-04-17T20:33:43.081Z,100985
2018-04-17T20:36:11.170Z,100991
2018-04-17T20:38:39.229Z,100989
2018-04-17T20:41:07.351Z,100991
2018-04-17T20:43:35.414Z,100989
2018-04-17T20:46:04.226Z,100988
2018-04-17T20:48:32.298Z,100993
2018-04-17T20:51:01.107Z,100992
2018-04-17T20:53:29.924Z,100992
2018-04-17T20:55:57.978Z,100986
2018-04-17T20:58:26.795Z,100989
2018-04-17T21:00:55.599Z,100991
2018-04-17T21:03:23.650Z,100990
2018-04-17T21:05:52.482Z,100992
2018-04-17T21:08:21.294Z,100996
2018-04-17T21:10:49.341Z,101000
2018-04-17T21:13:17.399Z,100997
2018-04-17T21:15:45.442Z,100994
2018-04-17T21:18:13.496Z,101002
2018-04-17T21:20:41.640Z,100999
2018-04-17T21:23:09.678Z,100996
2018-04-17T21:25:38.493Z,101001
2018-04-17T21:28:07.317Z,100999
2018-04-17T21:30:35.380Z,101003
2018-04-17T21:33:03.408Z,101004
2018-04-17T21:35:31.454Z,101011
2018-04-17T21:37:59.547Z,101009
2018-04-17T21:40:27.590Z,101009
2018-04-17T21:42:55.715Z,101011
2018-04-17T21:45:23.766Z,101017
2018-04-17T21:47:51.818Z,101010
2018-04-17T21:50:19.859Z,101019
2018-04-17T21:52:48.689Z,101016
2018-04-17T21:55:16.795Z,101012
2018-04-17T21:57:44.943Z,101010
2018-04-17T22:00:12.990Z,101017
2018-04-17T22:02:41.837Z,101018
2018-04-17T22:05:09.877Z,101019
2018-04-17T22:07:37.921Z,101020
2018-04-17T22:10:05.966Z,101016
2018-04-17T22:12:34.903Z,101022
2018-04-17T22:15:03.075Z,101033
2018-04-17T22:17:31.125Z,101029
2018-04-17T22:19:59.946Z,101032
2018-04-17T22:22:28.758Z,101032
2018-04-17T22:24:56.803Z,101039
2018-04-17T22:27:24.838Z,101034
2018-04-17T22:29:52.884Z,101042
2018-04-17T22:32:20.926Z,101037
2018-04-17T22:34:48.982Z,101037
2018-04-17T22:37:17.164Z,101037
2018-04-17T22:39:45.975Z,101041
2018-04-17T22:42:14.013Z,101043
2018-04-17T22:44:42.827Z,101043
2018-04-17T22:47:10.875Z,101042
2018-04-17T22:49:39.692Z,101042
2018-04-17T22:52:07.735Z,101045
2018-04-17T22:54:35.780Z,101046
2018-04-17T22:57:03.832Z,101048
2018-04-17T22:59:31.870Z,101046
2018-04-17T23:01:59.917Z,101049
2018-04-17T23:04:27.977Z,101052
2018-04-17T23:06:56.048Z,101049
2018-04-17T23:09:24.099Z,101054
2018-04-17T23:11:52.912Z,101057
2018-04-17T23:14:21.734Z,101060
2018-04-17T23:16:49.775Z,101063
2018-04-17T23:19:17.935Z,101067
2018-04-17T23:21:45.977Z,101075
2018-04-17T23:24:14.023Z,101082
2018-04-17T23:26:42.857Z,101079
2018-04-17T23:29:10.950Z,101082
2018-04-17T23:31:38.994Z,101089
2018-04-17T23:34:07.814Z,101089
2018-04-17T23:36:36.625Z,101084
2018-04-17T23:39:06.136Z,101084
2018-04-17T23:41:34.958Z,101083
2018-04-17T23:44:03.142Z,101085
2018-04-17T23:46:31.189Z,101093
2018-04-17T23:48:59.233Z,101093
2018-04-17T23:51:27.300Z,101096
2018-04-17T23:53:55.341Z,101094
2018-04-17T23:56:23.384Z,101092
2018-04-17T23:58:51.459Z,101091
